createdAt,value
2022-11-07T00:02:14.844Z,11.57
2022-11-07T00:04:41.877Z,11.58
2022-11-07T00:07:08.426Z,11.53
2022-11-07T00:09:34.760Z,11.55
2022-11-07T00:12:01.059Z,11.52
2022-11-07T00:14:27.372Z,11.49
2022-11-07T00:16:53.867Z,11.54
2022-11-07T00:19:21.909Z,11.57
2022-11-07T00:21:48.695Z,11.60
2022-11-07T00:24:17.392Z,11.57
2022-11-07T00:26:44.271Z,11.56
2022-11-07T00:29:14.269Z,11.57
2022-11-07T00:31:40.530Z,11.55
2022-11-07T00:34:06.901Z,11.55
2022-11-07T00:36:33.281Z,11.57
2022-11-07T00:38:59.711Z,11.55
2022-11-07T00:41:25.998Z,11.56
2022-11-07T00:43:52.515Z,11.54
2022-11-07T00:46:19.586Z,11.55
2022-11-07T00:48:46.142Z,11.55
2022-11-07T00:51:17.151Z,11.54
2022-11-07T00:53:43.448Z,11.56
2022-11-07T00:56:14.161Z,11.54
2022-11-07T00:58:42.511Z,11.53
2022-11-07T01:01:10.315Z,11.53
2022-11-07T01:03:55.542Z,11.57
2022-11-07T01:06:21.989Z,11.58
2022-11-07T01:08:48.291Z,11.60
2022-11-07T01:11:14.565Z,11.59
2022-11-07T01:13:40.918Z,11.61
2022-11-07T01:16:10.452Z,11.61
2022-11-07T01:18:36.959Z,11.61
2022-11-07T01:21:04.421Z,11.62
2022-11-07T01:23:30.742Z,11.66
2022-11-07T01:25:57.082Z,11.69
2022-11-07T01:28:23.461Z,11.71
2022-11-07T01:30:49.724Z,11.72
2022-11-07T01:33:16.531Z,11.71
2022-11-07T01:35:43.075Z,11.74
2022-11-07T01:38:09.357Z,11.76
2022-11-07T01:41:00.059Z,11.75
2022-11-07T01:43:40.377Z,11.73
2022-11-07T01:46:06.631Z,11.68
2022-11-07T01:48:33.347Z,11.65
2022-11-07T01:50:59.717Z,11.65
2022-11-07T01:53:26.216Z,11.67
2022-11-07T01:55:52.730Z,11.64
2022-11-07T01:58:19.144Z,11.60
2022-11-07T02:00:45.489Z,11.58
2022-11-07T02:03:16.233Z,11.56
2022-11-07T02:05:45.878Z,11.53
2022-11-07T02:08:13.496Z,11.53
2022-11-07T02:10:40.628Z,11.52
2022-11-07T02:13:07.080Z,11.48
2022-11-07T02:15:34.711Z,11.48
2022-11-07T02:18:01.221Z,11.52
2022-11-07T02:20:27.828Z,11.55
2022-11-07T02:22:54.234Z,11.57
2022-11-07T02:25:21.103Z,11.58
2022-11-07T02:27:49.378Z,11.51
2022-11-07T02:30:17.861Z,11.48
2022-11-07T02:32:44.195Z,11.41
2022-11-07T02:35:29.346Z,11.39
2022-11-07T02:37:55.802Z,11.36
2022-11-07T02:40:22.127Z,11.35
2022-11-07T02:42:48.696Z,11.36
2022-11-07T02:45:18.168Z,11.36
2022-11-07T02:47:44.642Z,11.34
2022-11-07T02:50:12.027Z,11.36
2022-11-07T02:52:38.392Z,11.34
2022-11-07T02:55:05.907Z,11.31
2022-11-07T02:57:32.268Z,11.29
2022-11-07T02:59:58.556Z,11.30
2022-11-07T03:02:25.450Z,11.32
2022-11-07T03:04:52.155Z,11.31
2022-11-07T03:07:18.454Z,11.32
2022-11-07T03:09:44.749Z,11.31
2022-11-07T03:12:11.132Z,11.30
2022-11-07T03:14:37.562Z,11.29
2022-11-07T03:17:03.911Z,11.28
2022-11-07T03:19:30.174Z,11.27
2022-11-07T03:21:56.618Z,11.23
2022-11-07T03:24:22.882Z,11.26
2022-11-07T03:26:49.250Z,11.24
2022-11-07T03:29:15.598Z,11.26
2022-11-07T03:31:41.886Z,11.26
2022-11-07T03:34:08.361Z,11.30
2022-11-07T03:36:34.673Z,11.29
2022-11-07T03:39:01.247Z,11.28
2022-11-07T03:41:27.669Z,11.28
2022-11-07T03:43:53.955Z,11.28
2022-11-07T03:46:20.204Z,11.30
2022-11-07T03:48:46.504Z,11.29
2022-11-07T03:51:12.819Z,11.29
2022-11-07T03:53:39.127Z,11.29
2022-11-07T03:56:07.047Z,11.29
2022-11-07T03:58:33.323Z,11.30
2022-11-07T04:00:59.600Z,11.29
2022-11-07T04:03:25.924Z,11.30
2022-11-07T04:05:52.228Z,11.30
2022-11-07T04:08:18.534Z,11.24
2022-11-07T04:10:44.841Z,11.28
2022-11-07T04:13:29.955Z,11.30
2022-11-07T04:16:17.521Z,11.29
2022-11-07T04:18:44.348Z,11.29
2022-11-07T04:21:10.761Z,11.28
2022-11-07T04:23:37.361Z,11.30
2022-11-07T04:26:22.414Z,11.31
2022-11-07T04:28:48.647Z,11.32
2022-11-07T04:31:14.896Z,11.31
2022-11-07T04:33:41.168Z,11.31
2022-11-07T04:36:07.748Z,11.28
2022-11-07T04:38:34.043Z,11.23
2022-11-07T04:41:00.402Z,11.20
2022-11-07T04:43:27.070Z,11.18
2022-11-07T04:45:53.413Z,11.18
2022-11-07T04:48:19.958Z,11.17
2022-11-07T04:50:46.598Z,11.20
2022-11-07T04:53:14.223Z,11.19
2022-11-07T04:55:41.229Z,11.19
2022-11-07T04:58:07.512Z,11.20
2022-11-07T05:00:34.054Z,11.20
2022-11-07T05:03:00.616Z,11.20
2022-11-07T05:05:26.970Z,11.18
2022-11-07T05:07:53.312Z,11.14
2022-11-07T05:10:24.296Z,11.12
2022-11-07T05:12:50.627Z,11.10
2022-11-07T05:15:17.377Z,11.12
2022-11-07T05:17:44.102Z,11.13
2022-11-07T05:20:29.250Z,11.15
2022-11-07T05:23:14.822Z,11.18
2022-11-07T05:25:42.720Z,11.22
2022-11-07T05:28:13.348Z,11.23
2022-11-07T05:30:41.078Z,11.23
2022-11-07T05:33:08.548Z,11.22
2022-11-07T05:35:34.931Z,11.26
2022-11-07T05:38:01.435Z,11.27
2022-11-07T05:40:27.878Z,11.07
2022-11-07T05:42:58.976Z,11.29
2022-11-07T05:45:25.236Z,11.31
2022-11-07T05:47:56.668Z,11.35
2022-11-07T05:50:22.963Z,11.36
2022-11-07T05:52:49.242Z,11.38
2022-11-07T05:55:15.631Z,11.38
2022-11-07T05:57:42.090Z,11.40
2022-11-07T06:00:08.804Z,11.43
2022-11-07T06:02:35.214Z,11.43
2022-11-07T06:05:01.691Z,11.46
2022-11-07T06:07:28.058Z,11.47
2022-11-07T06:09:54.399Z,11.50
2022-11-07T06:12:20.708Z,11.37
2022-11-07T06:14:47.024Z,11.56
2022-11-07T06:17:13.387Z,11.60
2022-11-07T06:19:39.774Z,11.63
2022-11-07T06:22:06.040Z,11.65
2022-11-07T06:24:32.306Z,11.69
2022-11-07T06:26:58.599Z,11.73
2022-11-07T06:29:24.865Z,11.75
2022-11-07T06:31:51.171Z,11.77
2022-11-07T06:34:17.503Z,11.79
2022-11-07T06:36:43.793Z,11.83
2022-11-07T06:39:10.085Z,11.85
2022-11-07T06:41:36.497Z,11.87
2022-11-07T06:44:02.763Z,11.86
2022-11-07T06:46:29.100Z,11.88
2022-11-07T06:48:55.408Z,11.92
2022-11-07T06:51:21.807Z,11.94
2022-11-07T06:53:48.136Z,11.97
2022-11-07T06:56:15.844Z,12.01
2022-11-07T06:58:42.438Z,12.06
2022-11-07T07:01:13.167Z,12.12
2022-11-07T07:03:40.459Z,12.18
2022-11-07T07:06:07.675Z,12.19
2022-11-07T07:08:34.229Z,12.24
2022-11-07T07:11:07.851Z,12.27
2022-11-07T07:13:34.559Z,12.28
2022-11-07T07:16:01.375Z,12.31
2022-11-07T07:18:28.391Z,12.33
2022-11-07T07:21:05.260Z,12.37
2022-11-07T07:23:33.054Z,12.43
2022-11-07T07:25:59.359Z,12.46
2022-11-07T07:28:25.714Z,12.49
2022-11-07T07:30:52.328Z,12.51
2022-11-07T07:33:19.242Z,12.53
2022-11-07T07:35:45.808Z,12.58
2022-11-07T07:38:12.363Z,12.63
2022-11-07T07:40:38.858Z,12.69
2022-11-07T07:43:05.124Z,12.75
2022-11-07T07:45:31.392Z,12.80
2022-11-07T07:48:02.262Z,12.82
2022-11-07T07:50:28.961Z,12.83
2022-11-07T07:52:56.175Z,12.86
2022-11-07T07:55:22.732Z,12.87
2022-11-07T07:57:49.171Z,12.90
2022-11-07T08:00:15.682Z,12.91
2022-11-07T08:02:44.001Z,12.95
2022-11-07T08:05:11.612Z,12.99
2022-11-07T08:07:45.266Z,13.03
2022-11-07T08:10:39.787Z,13.06
2022-11-07T08:12:57.914Z,13.08
2022-11-07T08:15:24.915Z,13.10
2022-11-07T08:17:51.275Z,13.11
2022-11-07T08:20:21.191Z,13.10
2022-11-07T08:22:47.441Z,13.09
2022-11-07T08:25:17.722Z,13.09
2022-11-07T08:27:45.020Z,13.08
2022-11-07T08:30:17.580Z,13.10
2022-11-07T08:32:44.376Z,13.11
2022-11-07T08:35:10.626Z,13.13
2022-11-07T08:37:37.535Z,13.17
2022-11-07T08:40:04.530Z,13.24
2022-11-07T08:42:30.812Z,13.30
2022-11-07T08:44:57.209Z,13.35
2022-11-07T08:47:23.596Z,13.40
2022-11-07T08:49:49.921Z,13.42
2022-11-07T08:52:16.176Z,13.44
2022-11-07T08:54:42.459Z,13.45
2022-11-07T08:57:08.771Z,13.49
2022-11-07T08:59:35.025Z,13.52
2022-11-07T09:02:44.604Z,13.57
2022-11-07T09:04:47.724Z,13.64
2022-11-07T09:07:14.108Z,13.69
2022-11-07T09:09:40.358Z,13.76
2022-11-07T09:12:06.847Z,13.82
2022-11-07T09:14:33.108Z,13.87
2022-11-07T09:16:59.406Z,13.90
2022-11-07T09:19:27.044Z,13.92
2022-11-07T09:21:53.327Z,13.91
2022-11-07T09:24:19.597Z,13.91
2022-11-07T09:26:45.943Z,13.93
2022-11-07T09:29:12.305Z,13.95
2022-11-07T09:31:38.584Z,13.98
2022-11-07T09:34:05.079Z,14.03
2022-11-07T09:36:31.352Z,14.09
2022-11-07T09:38:59.103Z,14.17
2022-11-07T09:41:32.119Z,14.24
2022-11-07T09:43:58.373Z,14.28
2022-11-07T09:46:36.713Z,14.28
2022-11-07T09:49:18.410Z,14.31
2022-11-07T09:51:52.272Z,14.31
2022-11-07T09:54:20.662Z,14.34
2022-11-07T09:56:46.919Z,14.40
2022-11-07T09:59:22.773Z,14.45
2022-11-07T10:01:49.164Z,14.47
2022-11-07T10:04:26.063Z,14.51
2022-11-07T10:06:56.779Z,14.51
2022-11-07T10:09:30.052Z,14.49
2022-11-07T10:12:11.907Z,14.50
2022-11-07T10:14:54.770Z,14.55
2022-11-07T10:17:28.321Z,14.62
2022-11-07T10:20:04.196Z,14.68
2022-11-07T10:22:49.071Z,14.79
2022-11-07T10:25:35.013Z,14.91
2022-11-07T10:28:07.158Z,15.02
2022-11-07T10:30:34.288Z,15.08
2022-11-07T10:33:19.426Z,15.17
2022-11-07T10:35:48.916Z,15.19
2022-11-07T10:38:24.361Z,15.22
2022-11-07T10:40:51.456Z,15.27
2022-11-07T10:43:34.927Z,15.28
2022-11-07T10:46:02.849Z,15.31
2022-11-07T10:48:29.586Z,15.28
2022-11-07T10:50:56.496Z,15.21
2022-11-07T10:53:25.035Z,15.16
2022-11-07T10:55:52.241Z,15.15
2022-11-07T10:58:23.120Z,15.19
2022-11-07T11:01:00.473Z,15.30
2022-11-07T11:03:43.192Z,15.44
2022-11-07T11:06:23.068Z,15.64
2022-11-07T11:08:51.004Z,15.80
2022-11-07T11:11:26.498Z,15.96
2022-11-07T11:14:03.571Z,16.07
2022-11-07T11:16:30.749Z,16.16
2022-11-07T11:18:58.250Z,16.21
2022-11-07T11:21:25.279Z,16.22
2022-11-07T11:23:52.893Z,16.18
2022-11-07T11:26:48.583Z,16.07
2022-11-07T11:29:20.716Z,16.00
2022-11-07T11:31:50.074Z,15.92
2022-11-07T11:34:16.294Z,15.86
2022-11-07T11:36:56.816Z,15.90
2022-11-07T11:39:32.828Z,16.01
2022-11-07T11:41:59.399Z,16.10
2022-11-07T11:44:25.631Z,16.17
2022-11-07T11:46:55.198Z,16.21
2022-11-07T11:49:24.916Z,16.25
2022-11-07T11:51:56.116Z,16.29
2022-11-07T11:54:22.503Z,16.29
2022-11-07T11:56:53.527Z,16.36
2022-11-07T11:59:35.134Z,16.34
2022-11-07T12:02:20.744Z,16.29
2022-11-07T12:04:47.967Z,16.32
2022-11-07T12:07:25.537Z,16.32
2022-11-07T12:10:03.451Z,16.30
2022-11-07T12:12:44.978Z,16.28
2022-11-07T12:15:14.530Z,16.32
2022-11-07T12:17:49.930Z,16.34
2022-11-07T12:20:19.934Z,16.33
2022-11-07T12:23:09.089Z,16.30
2022-11-07T12:25:43.000Z,16.32
2022-11-07T12:28:12.136Z,16.27
2022-11-07T12:30:57.107Z,16.24
2022-11-07T12:33:36.555Z,16.17
2022-11-07T12:36:06.608Z,16.13
2022-11-07T12:38:39.273Z,16.10
2022-11-07T12:41:25.073Z,16.08
2022-11-07T12:44:10.269Z,16.04
2022-11-07T12:46:51.797Z,16.01
2022-11-07T12:49:29.506Z,15.99
2022-11-07T12:52:03.751Z,15.97
2022-11-07T12:54:39.236Z,16.00
2022-11-07T12:57:25.392Z,16.04
2022-11-07T13:00:12.096Z,16.05
2022-11-07T13:02:44.548Z,16.08
2022-11-07T13:05:29.540Z,16.08
2022-11-07T13:08:07.429Z,16.10
2022-11-07T13:10:40.683Z,16.10
2022-11-07T13:13:19.839Z,16.11
2022-11-07T13:16:13.673Z,16.11
2022-11-07T13:18:32.758Z,16.10
2022-11-07T13:21:00.699Z,16.08
2022-11-07T13:23:28.098Z,16.10
2022-11-07T13:26:06.944Z,16.11
2022-11-07T13:28:41.538Z,16.09
2022-11-07T13:31:26.829Z,16.09
2022-11-07T13:33:53.100Z,16.06
2022-11-07T13:36:27.005Z,16.04
2022-11-07T13:38:56.384Z,15.97
2022-11-07T13:41:22.919Z,15.96
2022-11-07T13:44:14.960Z,15.92
2022-11-07T13:46:52.383Z,15.89
2022-11-07T13:49:21.240Z,15.88
2022-11-07T13:51:49.762Z,15.86
2022-11-07T13:54:28.735Z,15.85
2022-11-07T13:57:01.596Z,15.84
2022-11-07T13:59:30.336Z,15.86
2022-11-07T14:01:58.906Z,15.87
2022-11-07T14:04:27.472Z,15.85
2022-11-07T14:06:58.508Z,15.82
2022-11-07T14:09:25.224Z,15.77
2022-11-07T14:11:52.708Z,15.74
2022-11-07T14:14:22.260Z,15.71
2022-11-07T14:16:48.663Z,15.68
2022-11-07T14:19:16.612Z,15.66
2022-11-07T14:21:44.500Z,15.66
2022-11-07T14:24:24.829Z,15.67
2022-11-07T14:27:02.342Z,15.68
2022-11-07T14:29:29.028Z,15.69
2022-11-07T14:32:02.456Z,15.70
2022-11-07T14:34:28.865Z,15.68
2022-11-07T14:36:57.290Z,15.67
2022-11-07T14:39:24.681Z,15.66
2022-11-07T14:41:51.647Z,15.65
2022-11-07T14:44:20.271Z,15.62
2022-11-07T14:46:47.415Z,15.60
2022-11-07T14:49:34.343Z,15.58
2022-11-07T14:52:00.683Z,15.57
2022-11-07T14:54:33.483Z,15.57
2022-11-07T14:57:00.833Z,15.55
2022-11-07T14:59:30.277Z,15.55
2022-11-07T15:02:04.407Z,15.53
2022-11-07T15:04:36.111Z,15.51
2022-11-07T15:07:13.078Z,15.50
2022-11-07T15:09:40.747Z,15.49
2022-11-07T15:12:14.285Z,15.49
2022-11-07T15:14:40.628Z,15.49
2022-11-07T15:17:07.420Z,15.44
2022-11-07T15:19:34.917Z,15.42
2022-11-07T15:22:03.113Z,15.39
2022-11-07T15:24:43.472Z,15.37
2022-11-07T15:27:18.951Z,15.36
2022-11-07T15:29:49.621Z,15.36
2022-11-07T15:32:18.375Z,15.34
2022-11-07T15:35:03.760Z,15.33
2022-11-07T15:37:31.537Z,15.29
2022-11-07T15:39:57.939Z,15.27
2022-11-07T15:42:24.449Z,15.24
2022-11-07T15:44:50.748Z,15.20
2022-11-07T15:47:22.034Z,15.18
2022-11-07T15:49:48.639Z,15.13
2022-11-07T15:52:14.953Z,15.12
2022-11-07T15:54:41.284Z,15.09
2022-11-07T15:57:08.101Z,15.09
2022-11-07T15:59:36.513Z,15.08
2022-11-07T16:02:03.214Z,15.06
2022-11-07T16:04:29.727Z,15.04
2022-11-07T16:06:56.178Z,14.99
2022-11-07T16:09:22.648Z,14.98
2022-11-07T16:11:49.039Z,14.97
2022-11-07T16:14:42.168Z,14.93
2022-11-07T16:17:03.355Z,14.93
2022-11-07T16:19:30.818Z,14.91
2022-11-07T16:21:57.222Z,14.89
2022-11-07T16:24:23.523Z,14.88
2022-11-07T16:26:51.144Z,14.88
2022-11-07T16:29:17.652Z,14.87
2022-11-07T16:31:44.011Z,14.87
2022-11-07T16:34:10.984Z,14.88
2022-11-07T16:36:38.147Z,14.87
2022-11-07T16:39:07.932Z,14.87
2022-11-07T16:41:34.703Z,14.87
2022-11-07T16:44:01.114Z,14.86
2022-11-07T16:46:28.621Z,14.86
2022-11-07T16:48:59.342Z,14.85
2022-11-07T16:51:25.722Z,14.85
2022-11-07T16:53:52.033Z,14.84
2022-11-07T16:56:23.720Z,14.84
2022-11-07T16:58:50.215Z,14.85
2022-11-07T17:01:17.104Z,14.84
2022-11-07T17:03:43.580Z,14.84
2022-11-07T17:06:14.719Z,14.84
2022-11-07T17:08:41.159Z,14.83
2022-11-07T17:11:07.758Z,14.83
2022-11-07T17:13:34.246Z,14.84
2022-11-07T17:16:00.647Z,14.84
2022-11-07T17:18:27.543Z,14.83
2022-11-07T17:20:54.252Z,14.80
2022-11-07T17:23:25.301Z,14.78
2022-11-07T17:25:55.564Z,14.78
2022-11-07T17:28:22.275Z,14.76
2022-11-07T17:30:48.743Z,14.77
2022-11-07T17:33:15.120Z,14.76
2022-11-07T17:35:41.804Z,14.75
2022-11-07T17:38:10.440Z,14.72
2022-11-07T17:40:36.753Z,14.71
2022-11-07T17:43:03.083Z,14.71
2022-11-07T17:45:29.448Z,14.72
2022-11-07T17:47:56.011Z,14.73
2022-11-07T17:50:22.455Z,14.72
2022-11-07T17:52:48.878Z,14.74
2022-11-07T17:55:15.283Z,14.73
2022-11-07T17:57:43.301Z,14.75
2022-11-07T18:00:19.870Z,14.76
2022-11-07T18:02:48.258Z,14.76
2022-11-07T18:05:19.160Z,14.81
2022-11-07T18:07:45.917Z,14.83
2022-11-07T18:10:13.481Z,14.86
2022-11-07T18:12:39.826Z,14.86
2022-11-07T18:15:06.549Z,14.87
2022-11-07T18:17:35.377Z,14.87
2022-11-07T18:20:03.926Z,14.88
2022-11-07T18:22:30.349Z,14.88
2022-11-07T18:24:56.852Z,14.88
2022-11-07T18:27:23.304Z,14.88
2022-11-07T18:29:49.987Z,14.89
2022-11-07T18:32:16.415Z,14.89
2022-11-07T18:34:42.730Z,14.89
2022-11-07T18:37:09.099Z,14.89
2022-11-07T18:39:35.516Z,14.88
2022-11-07T18:42:01.849Z,14.85
2022-11-07T18:44:28.332Z,14.84
2022-11-07T18:46:54.958Z,14.81
2022-11-07T18:49:21.563Z,14.79
2022-11-07T18:51:47.833Z,14.77
2022-11-07T18:54:16.936Z,14.75
2022-11-07T18:56:43.575Z,14.72
2022-11-07T18:59:10.255Z,14.69
2022-11-07T19:01:36.901Z,14.64
2022-11-07T19:04:05.589Z,14.63
2022-11-07T19:06:32.308Z,14.61
2022-11-07T19:08:59.016Z,14.61
2022-11-07T19:11:28.695Z,14.59
2022-11-07T19:13:56.316Z,14.59
2022-11-07T19:16:23.152Z,14.58
2022-11-07T19:18:50.155Z,14.59
2022-11-07T19:21:18.996Z,14.60
2022-11-07T19:23:46.475Z,14.62
2022-11-07T19:26:12.911Z,14.62
2022-11-07T19:28:40.057Z,14.61
2022-11-07T19:31:07.549Z,14.60
2022-11-07T19:33:34.031Z,14.56
2022-11-07T19:36:01.502Z,14.54
2022-11-07T19:38:28.625Z,14.50
2022-11-07T19:40:55.266Z,14.47
2022-11-07T19:43:21.773Z,14.44
2022-11-07T19:45:48.318Z,14.40
2022-11-07T19:48:15.522Z,14.39
2022-11-07T19:50:41.814Z,14.38
2022-11-07T19:53:08.307Z,14.35
2022-11-07T19:55:35.825Z,14.38
2022-11-07T19:58:02.275Z,14.39
2022-11-07T20:00:28.833Z,14.38
2022-11-07T20:02:55.522Z,14.37
2022-11-07T20:05:25.535Z,14.33
2022-11-07T20:07:54.790Z,14.28
2022-11-07T20:10:24.052Z,14.23
2022-11-07T20:12:50.611Z,14.22
2022-11-07T20:15:17.344Z,14.20
2022-11-07T20:17:43.815Z,14.18
2022-11-07T20:20:13.460Z,14.18
2022-11-07T20:22:46.210Z,14.17
2022-11-07T20:25:13.032Z,14.12
2022-11-07T20:27:39.373Z,14.13
2022-11-07T20:30:06.024Z,14.08
2022-11-07T20:32:32.344Z,14.09
2022-11-07T20:34:58.634Z,14.08
2022-11-07T20:37:24.947Z,14.07
2022-11-07T20:39:51.891Z,14.06
2022-11-07T20:42:18.227Z,14.05
2022-11-07T20:44:44.845Z,14.06
2022-11-07T20:47:11.892Z,14.02
2022-11-07T20:49:38.909Z,14.02
2022-11-07T20:52:06.932Z,14.00
2022-11-07T20:54:34.232Z,13.99
2022-11-07T20:57:01.070Z,13.99
2022-11-07T20:59:27.441Z,13.98
2022-11-07T21:01:57.559Z,13.96
2022-11-07T21:04:26.611Z,13.93
2022-11-07T21:06:52.946Z,13.94
2022-11-07T21:09:21.023Z,13.91
2022-11-07T21:11:47.347Z,13.88
2022-11-07T21:14:13.682Z,13.90
2022-11-07T21:16:40.090Z,13.89
2022-11-07T21:19:06.734Z,13.87
2022-11-07T21:21:33.601Z,13.86
2022-11-07T21:24:00.191Z,13.83
2022-11-07T21:26:28.460Z,13.80
2022-11-07T21:28:55.736Z,13.81
2022-11-07T21:31:24.163Z,13.75
2022-11-07T21:33:51.231Z,13.72
2022-11-07T21:36:18.698Z,13.70
2022-11-07T21:38:46.554Z,13.68
2022-11-07T21:41:13.798Z,13.70
2022-11-07T21:43:40.739Z,13.69
2022-11-07T21:46:12.124Z,13.70
2022-11-07T21:48:38.955Z,13.68
2022-11-07T21:51:10.296Z,13.69
2022-11-07T21:53:37.928Z,13.67
2022-11-07T21:56:05.748Z,13.66
2022-11-07T21:58:32.193Z,13.66
2022-11-07T22:01:05.358Z,13.64
2022-11-07T22:04:03.868Z,13.61
2022-11-07T22:06:19.531Z,13.64
2022-11-07T22:08:50.935Z,13.64
2022-11-07T22:11:17.647Z,13.63
2022-11-07T22:13:44.288Z,13.63
2022-11-07T22:16:12.214Z,13.62
2022-11-07T22:18:38.746Z,13.60
2022-11-07T22:21:06.273Z,13.60
2022-11-07T22:23:33.710Z,13.59
2022-11-07T22:26:26.639Z,13.58
2022-11-07T22:28:53.883Z,13.55
2022-11-07T22:31:22.702Z,13.52
2022-11-07T22:33:49.639Z,13.52
2022-11-07T22:36:16.089Z,13.51
2022-11-07T22:38:42.488Z,13.50
2022-11-07T22:41:11.353Z,13.50
2022-11-07T22:43:37.835Z,13.51
2022-11-07T22:46:05.113Z,13.49
2022-11-07T22:48:31.460Z,13.47
2022-11-07T22:51:01.625Z,13.43
2022-11-07T22:53:28.353Z,13.40
2022-11-07T22:55:54.751Z,13.34
2022-11-07T22:58:21.052Z,13.29
2022-11-07T23:00:47.337Z,13.30
2022-11-07T23:03:13.763Z,13.27
2022-11-07T23:05:40.148Z,13.23
2022-11-07T23:08:06.481Z,13.23
2022-11-07T23:10:32.807Z,13.18
2022-11-07T23:12:59.067Z,13.15
2022-11-07T23:15:25.377Z,13.11
2022-11-07T23:17:51.709Z,13.09
2022-11-07T23:20:36.907Z,13.07
2022-11-07T23:23:04.905Z,12.84
2022-11-07T23:25:31.229Z,13.05
2022-11-07T23:27:57.630Z,13.01
2022-11-07T23:30:24.016Z,12.74
2022-11-07T23:32:50.327Z,12.87
2022-11-07T23:35:16.721Z,12.86
2022-11-07T23:37:43.051Z,12.87
2022-11-07T23:40:09.758Z,12.87
2022-11-07T23:42:36.063Z,12.92
2022-11-07T23:45:21.118Z,12.97
2022-11-07T23:48:06.071Z,13.01
2022-11-07T23:50:51.192Z,13.11
2022-11-07T23:53:36.231Z,13.18
2022-11-07T23:56:05.080Z,13.21
2022-11-07T23:58:50.300Z,13.26
